Time;durP1;ratioP1;P1;durP2;ratioP2;P2;SDS_P1;SDS_P2;PMS_P1;PMS_P2;Temp;Humidity;BMP_temperature;BMP_pressure;BME280_temperature;BME280_humidity;BME280_pressure;Samples;Min_cycle;Max_cycle;Signal;HPM_P1;HPM_P2
2023/05/26 00:00:32;;;;;;;18.80;8.00;;;;;;;;;;4941652;29;20190;-74
2023/05/26 00:02:58;;;;;;;22.20;8.80;;;;;;;;;;4941898;29;20416;-73
2023/05/26 00:05:25;;;;;;;19.27;6.65;;;;;;;;;;4941315;29;20446;-74
2023/05/26 00:07:51;;;;;;;19.17;7.40;;;;;;;;;;4941521;29;20224;-74
2023/05/26 00:10:17;;;;;;;22.40;7.40;;;;;;;;;;4941644;29;20174;-74
2023/05/26 00:12:43;;;;;;;23.35;7.05;;;;;;;;;;4924441;29;20405;-74
2023/05/26 00:15:09;;;;;;;16.83;6.35;;;;;;;;;;4940385;29;20577;-74
2023/05/26 00:17:36;;;;;;;23.23;7.65;;;;;;;;;;4941431;29;20294;-74
2023/05/26 00:20:02;;;;;;;19.67;8.10;;;;;;;;;;4941008;29;20213;-74
2023/05/26 00:22:28;;;;;;;17.05;6.97;;;;;;;;;;4941392;29;20406;-75
2023/05/26 00:24:54;;;;;;;15.75;7.60;;;;;;;;;;4941292;29;20174;-74
2023/05/26 00:27:20;;;;;;;21.98;8.45;;;;;;;;;;4941345;29;20537;-74
2023/05/26 00:29:47;;;;;;;17.75;7.93;;;;;;;;;;4940722;29;20192;-74
2023/05/26 00:32:13;;;;;;;17.05;8.05;;;;;;;;;;4941106;29;20532;-74
2023/05/26 00:34:39;;;;;;;20.13;8.50;;;;;;;;;;4941181;29;20185;-74
2023/05/26 00:37:05;;;;;;;18.80;8.95;;;;;;;;;;4941170;29;20414;-74
2023/05/26 00:39:31;;;;;;;17.92;7.93;;;;;;;;;;4940418;29;20193;-74
2023/05/26 00:41:58;;;;;;;20.65;8.32;;;;;;;;;;4941217;29;20181;-74
2023/05/26 00:44:24;;;;;;;21.77;8.13;;;;;;;;;;4940680;29;20174;-76
2023/05/26 00:46:50;;;;;;;20.88;7.95;;;;;;;;;;4941025;29;20197;-74
2023/05/26 00:49:16;;;;;;;27.40;8.93;;;;;;;;;;4940158;29;20221;-74
2023/05/26 00:51:43;;;;;;;22.88;8.18;;;;;;;;;;4940733;29;20225;-74
2023/05/26 00:54:09;;;;;;;21.05;9.45;;;;;;;;;;4941367;29;20197;-74
2023/05/26 00:56:36;;;;;;;22.83;8.23;;;;;;;;;;4940676;29;20182;-74
2023/05/26 00:59:05;;;;;;;19.17;8.23;;;;;;;;;;4940805;29;20205;-74
2023/05/26 01:01:32;;;;;;;27.63;8.23;;;;;;;;;;4940867;29;20176;-74
2023/05/26 01:03:58;;;;;;;26.35;9.48;;;;;;;;;;4941465;29;20204;-74
2023/05/26 01:06:25;;;;;;;23.65;8.65;;;;;;;;;;4940413;29;20268;-75
2023/05/26 01:08:51;;;;;;;16.60;8.43;;;;;;;;;;4940943;29;20618;-74
2023/05/26 01:11:34;;;;;;;24.67;8.20;;;;;;;;;;4940909;29;20184;-74
2023/05/26 01:14:04;;;;;;;22.85;9.02;;;;;;;;;;4941018;29;20177;-74
2023/05/26 01:16:33;;;;;;;16.20;8.20;;;;;;;;;;4940425;29;20178;-74
2023/05/26 01:19:02;;;;;;;21.33;8.82;;;;;;;;;;4940907;29;20188;-74
2023/05/26 01:21:31;;;;;;;21.10;8.40;;;;;;;;;;4940485;29;20174;-75
2023/05/26 01:24:20;;;;;;;17.65;7.88;;;;;;;;;;4941075;29;20586;-74
2023/05/26 01:27:04;;;;;;;28.75;9.60;;;;;;;;;;4940527;29;20193;-74
2023/05/26 01:29:33;;;;;;;29.80;9.18;;;;;;;;;;4940297;29;20233;-74
2023/05/26 01:32:15;;;;;;;23.33;8.55;;;;;;;;;;4940630;29;20205;-74
2023/05/26 01:34:41;;;;;;;22.65;7.78;;;;;;;;;;4940070;29;20177;-74
2023/05/26 01:37:07;;;;;;;29.42;8.50;;;;;;;;;;4940282;29;20169;-74
2023/05/26 01:39:34;;;;;;;22.27;8.32;;;;;;;;;;4940119;29;20182;-74
2023/05/26 01:42:06;;;;;;;25.33;8.55;;;;;;;;;;4941040;29;20207;-74
2023/05/26 01:44:36;;;;;;;22.25;8.32;;;;;;;;;;4939990;29;20534;-74
2023/05/26 01:47:03;;;;;;;17.80;6.70;;;;;;;;;;4940863;29;20177;-74
2023/05/26 01:49:29;;;;;;;25.65;7.63;;;;;;;;;;4940122;29;20213;-75
2023/05/26 01:52:01;;;;;;;29.25;8.80;;;;;;;;;;4941762;29;20236;-74
2023/05/26 01:54:28;;;;;;;28.33;8.05;;;;;;;;;;4944040;29;20177;-74
2023/05/26 01:56:54;;;;;;;19.13;7.10;;;;;;;;;;4944010;29;20596;-74
2023/05/26 01:59:23;;;;;;;23.33;8.45;;;;;;;;;;4944212;29;20178;-74
2023/05/26 02:01:49;;;;;;;22.58;7.50;;;;;;;;;;4944698;29;20184;-74
2023/05/26 02:04:16;;;;;;;21.58;7.50;;;;;;;;;;4943744;29;20177;-74
2023/05/26 02:06:42;;;;;;;22.95;7.47;;;;;;;;;;4942326;29;20198;-74
2023/05/26 02:09:08;;;;;;;28.48;8.00;;;;;;;;;;4942685;29;20202;-74
2023/05/26 02:11:34;;;;;;;27.88;8.40;;;;;;;;;;4943836;29;20178;-74
2023/05/26 02:14:00;;;;;;;20.95;6.72;;;;;;;;;;4944378;29;20174;-74
2023/05/26 02:16:27;;;;;;;24.80;8.10;;;;;;;;;;4944303;29;20668;-74
2023/05/26 02:18:54;;;;;;;19.40;7.38;;;;;;;;;;4943488;29;20425;-74
2023/05/26 02:21:20;;;;;;;19.80;7.82;;;;;;;;;;4943686;29;20185;-74
2023/05/26 02:23:46;;;;;;;18.35;6.22;;;;;;;;;;4943788;29;20189;-74
2023/05/26 02:26:13;;;;;;;19.27;6.13;;;;;;;;;;4944047;29;20181;-74
2023/05/26 02:28:39;;;;;;;20.45;6.90;;;;;;;;;;4943722;29;20232;-74
2023/05/26 02:31:05;;;;;;;23.73;6.10;;;;;;;;;;4943861;29;20268;-74
2023/05/26 02:33:32;;;;;;;18.05;6.80;;;;;;;;;;4944191;29;20276;-75
2023/05/26 02:35:58;;;;;;;25.40;7.13;;;;;;;;;;4944088;29;20240;-75
2023/05/26 02:38:24;;;;;;;19.20;5.75;;;;;;;;;;4944098;29;20189;-74
2023/05/26 02:40:50;;;;;;;24.15;7.10;;;;;;;;;;4943367;29;20684;-74
2023/05/26 02:43:17;;;;;;;19.42;6.20;;;;;;;;;;4943695;29;20177;-74
2023/05/26 02:45:43;;;;;;;18.30;6.57;;;;;;;;;;4943281;29;20185;-74
2023/05/26 02:48:09;;;;;;;27.92;6.80;;;;;;;;;;4943256;29;20209;-74
2023/05/26 02:50:35;;;;;;;20.85;6.00;;;;;;;;;;4943247;29;20689;-74
2023/05/26 02:53:02;;;;;;;26.15;6.80;;;;;;;;;;4943500;29;20197;-73
2023/05/26 02:55:28;;;;;;;25.88;7.68;;;;;;;;;;4942789;29;20219;-73
2023/05/26 02:57:54;;;;;;;15.18;6.97;;;;;;;;;;4942885;29;20209;-74
2023/05/26 03:00:21;;;;;;;22.77;8.48;;;;;;;;;;4943058;29;20218;-74
2023/05/26 03:02:47;;;;;;;27.83;6.40;;;;;;;;;;4942393;28;20182;-74
2023/05/26 03:05:13;;;;;;;28.95;7.55;;;;;;;;;;4943889;29;20186;-74
2023/05/26 03:07:39;;;;;;;24.38;6.68;;;;;;;;;;4942807;29;20186;-74
2023/05/26 03:10:05;;;;;;;29.40;6.78;;;;;;;;;;4942681;29;20181;-74
2023/05/26 03:12:32;;;;;;;27.33;6.22;;;;;;;;;;4943161;29;20170;-73
2023/05/26 03:14:58;;;;;;;26.08;6.88;;;;;;;;;;4942990;29;20228;-73
2023/05/26 03:17:24;;;;;;;22.37;6.40;;;;;;;;;;4942969;29;20178;-74
2023/05/26 03:19:50;;;;;;;25.70;7.47;;;;;;;;;;4942506;29;20418;-74
2023/05/26 03:22:16;;;;;;;23.20;7.00;;;;;;;;;;4943053;29;20185;-74
2023/05/26 03:24:42;;;;;;;22.83;6.68;;;;;;;;;;4942850;29;20414;-73
2023/05/26 03:27:08;;;;;;;38.22;8.48;;;;;;;;;;4942749;29;20185;-74
2023/05/26 03:29:34;;;;;;;25.00;7.13;;;;;;;;;;4942858;29;20217;-75
2023/05/26 03:32:00;;;;;;;21.38;6.25;;;;;;;;;;4942557;29;20193;-74
2023/05/26 03:34:26;;;;;;;19.75;7.15;;;;;;;;;;4942665;29;20659;-74
2023/05/26 03:36:54;;;;;;;25.20;6.30;;;;;;;;;;4943126;29;20535;-73
2023/05/26 03:39:22;;;;;;;24.77;6.38;;;;;;;;;;4943076;29;20190;-74
2023/05/26 03:41:48;;;;;;;27.55;6.78;;;;;;;;;;4942493;29;20192;-74
2023/05/26 03:44:18;;;;;;;25.85;6.88;;;;;;;;;;4926130;29;20217;-73
2023/05/26 03:46:44;;;;;;;28.52;6.93;;;;;;;;;;4942614;29;20192;-74
2023/05/26 03:49:10;;;;;;;24.05;7.90;;;;;;;;;;4942765;29;20264;-74
2023/05/26 03:51:36;;;;;;;22.85;6.22;;;;;;;;;;4943179;29;20229;-74
2023/05/26 03:54:02;;;;;;;23.48;6.47;;;;;;;;;;4942616;29;20229;-74
2023/05/26 03:56:28;;;;;;;25.85;6.90;;;;;;;;;;4942751;29;20185;-74
2023/05/26 03:58:54;;;;;;;27.43;6.90;;;;;;;;;;4942105;29;20178;-73
2023/05/26 04:01:22;;;;;;;25.23;6.32;;;;;;;;;;4942330;29;20429;-74
2023/05/26 04:03:48;;;;;;;28.67;6.68;;;;;;;;;;4941941;29;20237;-74
2023/05/26 04:06:14;;;;;;;20.85;6.38;;;;;;;;;;4942124;29;20180;-73
2023/05/26 04:08:40;;;;;;;19.48;6.82;;;;;;;;;;4941957;29;20219;-74
2023/05/26 04:11:06;;;;;;;19.25;6.82;;;;;;;;;;4942199;29;20658;-74
2023/05/26 04:13:33;;;;;;;22.60;6.97;;;;;;;;;;4942199;29;20185;-73
2023/05/26 04:15:59;;;;;;;22.33;6.68;;;;;;;;;;4941806;29;20177;-74
2023/05/26 04:18:25;;;;;;;20.57;6.97;;;;;;;;;;4942414;29;20646;-74
2023/05/26 04:20:51;;;;;;;33.42;6.80;;;;;;;;;;4942117;29;20410;-74
2023/05/26 04:23:17;;;;;;;32.13;6.55;;;;;;;;;;4942135;29;20626;-74
2023/05/26 04:25:43;;;;;;;34.83;7.53;;;;;;;;;;4941549;29;20213;-74
2023/05/26 04:28:09;;;;;;;21.98;7.43;;;;;;;;;;4942494;29;20217;-74
2023/05/26 04:30:39;;;;;;;20.80;7.13;;;;;;;;;;4941878;29;20599;-74
2023/05/26 04:33:05;;;;;;;21.20;6.07;;;;;;;;;;4942571;29;20178;-74
2023/05/26 04:35:33;;;;;;;27.80;6.50;;;;;;;;;;4942137;29;20211;-74
2023/05/26 04:37:59;;;;;;;33.55;7.63;;;;;;;;;;4941834;29;20556;-74
2023/05/26 04:40:25;;;;;;;30.40;7.57;;;;;;;;;;4942206;29;20177;-74
2023/05/26 04:42:51;;;;;;;30.85;6.70;;;;;;;;;;4942019;29;20590;-73
2023/05/26 04:45:18;;;;;;;21.20;6.70;;;;;;;;;;4941762;29;20177;-74
2023/05/26 04:47:44;;;;;;;23.35;6.95;;;;;;;;;;4941711;29;20190;-74
2023/05/26 04:50:16;;;;;;;31.67;8.95;;;;;;;;;;4941588;29;20284;-74
2023/05/26 04:52:42;;;;;;;23.98;7.05;;;;;;;;;;4941513;29;20193;-74
2023/05/26 04:55:09;;;;;;;26.63;8.38;;;;;;;;;;4941577;29;20204;-74
2023/05/26 04:57:35;;;;;;;27.35;7.68;;;;;;;;;;4941369;29;20268;-73
2023/05/26 05:00:01;;;;;;;23.90;7.70;;;;;;;;;;4940992;29;20195;-74
2023/05/26 05:02:28;;;;;;;28.83;7.57;;;;;;;;;;4941692;29;20208;-74
2023/05/26 05:04:54;;;;;;;26.30;7.25;;;;;;;;;;4941841;29;20194;-74
2023/05/26 05:07:20;;;;;;;30.48;8.80;;;;;;;;;;4939815;29;20235;-74
2023/05/26 05:09:46;;;;;;;29.80;9.82;;;;;;;;;;4938944;29;20694;-74
2023/05/26 05:12:12;;;;;;;19.83;7.72;;;;;;;;;;4939587;29;20185;-74
2023/05/26 05:14:38;;;;;;;29.27;8.80;;;;;;;;;;4941191;29;20184;-74
2023/05/26 05:17:04;;;;;;;29.00;8.93;;;;;;;;;;4941218;29;20177;-74
2023/05/26 05:19:30;;;;;;;27.02;8.35;;;;;;;;;;4941561;29;20515;-74
2023/05/26 05:21:56;;;;;;;43.67;10.73;;;;;;;;;;4941069;29;20200;-74
2023/05/26 05:24:22;;;;;;;31.15;9.93;;;;;;;;;;4941858;29;20180;-74
2023/05/26 05:26:48;;;;;;;22.27;9.85;;;;;;;;;;4940893;29;20535;-74
2023/05/26 05:29:14;;;;;;;27.50;9.85;;;;;;;;;;4941571;29;20201;-74
2023/05/26 05:31:40;;;;;;;31.95;8.90;;;;;;;;;;4940817;29;20717;-74
2023/05/26 05:34:06;;;;;;;24.90;9.25;;;;;;;;;;4940324;29;20654;-74
2023/05/26 05:36:33;;;;;;;27.15;9.98;;;;;;;;;;4940550;29;20697;-74
2023/05/26 05:38:59;;;;;;;28.75;10.15;;;;;;;;;;4940811;29;20292;-74
2023/05/26 05:41:25;;;;;;;30.48;10.45;;;;;;;;;;4940934;29;20205;-74
2023/05/26 05:43:56;;;;;;;31.85;11.40;;;;;;;;;;4941646;29;20181;-74
2023/05/26 05:46:22;;;;;;;31.02;10.63;;;;;;;;;;4941425;29;20238;-74
2023/05/26 05:48:48;;;;;;;27.27;9.77;;;;;;;;;;4940877;29;20245;-74
2023/05/26 05:51:14;;;;;;;21.80;11.07;;;;;;;;;;4941364;29;20225;-74
2023/05/26 05:53:40;;;;;;;29.83;11.43;;;;;;;;;;4941012;29;20256;-74
2023/05/26 05:56:06;;;;;;;31.97;10.27;;;;;;;;;;4940594;29;20178;-73
2023/05/26 05:58:32;;;;;;;34.13;11.40;;;;;;;;;;4941304;29;20471;-74
2023/05/26 06:00:58;;;;;;;34.67;12.52;;;;;;;;;;4941531;29;20182;-73
2023/05/26 06:03:25;;;;;;;35.78;12.02;;;;;;;;;;4941218;29;20178;-73
2023/05/26 06:05:51;;;;;;;35.40;12.20;;;;;;;;;;4941700;29;20281;-74
2023/05/26 06:08:17;;;;;;;24.23;11.50;;;;;;;;;;4940695;29;20217;-73
2023/05/26 06:10:44;;;;;;;37.72;12.25;;;;;;;;;;4940336;29;20646;-76
2023/05/26 06:13:10;;;;;;;27.33;12.35;;;;;;;;;;4940799;29;20193;-73
2023/05/26 06:15:36;;;;;;;29.15;12.88;;;;;;;;;;4941070;29;20174;-73
2023/05/26 06:18:02;;;;;;;31.77;13.45;;;;;;;;;;4939739;29;20266;-73
2023/05/26 06:20:28;;;;;;;31.73;14.10;;;;;;;;;;4940843;29;20221;-73
2023/05/26 06:22:54;;;;;;;32.58;15.05;;;;;;;;;;4940406;29;20401;-74
2023/05/26 06:25:20;;;;;;;42.37;14.47;;;;;;;;;;4940418;29;20196;-73
2023/05/26 06:27:46;;;;;;;35.10;14.77;;;;;;;;;;4940139;29;20405;-75
2023/05/26 06:30:12;;;;;;;39.30;14.13;;;;;;;;;;4941297;29;20432;-73
2023/05/26 06:32:38;;;;;;;31.77;14.23;;;;;;;;;;4940434;29;20402;-73
2023/05/26 06:35:05;;;;;;;44.57;18.40;;;;;;;;;;4940410;29;20405;-73
2023/05/26 06:37:31;;;;;;;36.63;16.37;;;;;;;;;;4941407;29;20788;-73
2023/05/26 06:39:57;;;;;;;36.73;16.00;;;;;;;;;;4944080;29;20485;-73
2023/05/26 06:42:23;;;;;;;48.00;16.77;;;;;;;;;;4943797;29;20476;-73
2023/05/26 06:44:49;;;;;;;38.47;15.43;;;;;;;;;;4943542;29;20781;-74
2023/05/26 06:47:18;;;;;;;31.57;15.90;;;;;;;;;;4944092;29;20766;-73
2023/05/26 06:49:45;;;;;;;31.37;16.57;;;;;;;;;;4943844;29;20588;-73
2023/05/26 06:52:11;;;;;;;32.00;17.73;;;;;;;;;;4943988;29;20394;-73
2023/05/26 06:54:37;;;;;;;37.47;15.83;;;;;;;;;;4941826;29;20409;-80
2023/05/26 06:57:03;;;;;;;40.30;17.67;;;;;;;;;;4939786;29;20840;-80
2023/05/26 06:59:29;;;;;;;37.27;17.60;;;;;;;;;;4940139;29;20421;-80
2023/05/26 07:01:55;;;;;;;36.30;16.13;;;;;;;;;;4939432;29;20477;-80
2023/05/26 07:04:21;;;;;;;35.67;17.50;;;;;;;;;;4939986;29;20914;-81
2023/05/26 07:06:47;;;;;;;34.53;17.63;;;;;;;;;;4940172;29;20817;-80
2023/05/26 07:09:13;;;;;;;35.13;18.17;;;;;;;;;;4939886;29;20898;-81
2023/05/26 07:11:39;;;;;;;44.70;18.50;;;;;;;;;;4939383;29;20409;-79
2023/05/26 07:14:05;;;;;;;34.53;17.70;;;;;;;;;;4939072;29;20413;-81
2023/05/26 07:16:32;;;;;;;27.80;16.23;;;;;;;;;;4952107;29;20483;-80
2023/05/26 07:18:58;;;;;;;34.87;17.73;;;;;;;;;;4944718;29;20496;-81
2023/05/26 07:21:25;;;;;;;43.57;17.60;;;;;;;;;;4922457;29;20449;-81
2023/05/26 07:23:51;;;;;;;30.10;17.10;;;;;;;;;;4922201;29;20509;-81
2023/05/26 07:26:17;;;;;;;33.13;17.17;;;;;;;;;;4939647;29;20494;-80
2023/05/26 07:28:44;;;;;;;48.07;18.13;;;;;;;;;;4939735;29;20488;-80
2023/05/26 07:31:10;;;;;;;29.07;16.73;;;;;;;;;;4939009;29;20469;-80
2023/05/26 07:33:36;;;;;;;30.47;16.13;;;;;;;;;;4942193;29;20420;-82
2023/05/26 07:36:03;;;;;;;32.67;15.37;;;;;;;;;;4958194;29;20412;-81
2023/05/26 07:38:29;;;;;;;32.17;16.13;;;;;;;;;;4958444;29;20806;-80
2023/05/26 07:40:55;;;;;;;29.90;15.77;;;;;;;;;;4959219;29;20460;-81
2023/05/26 07:43:21;;;;;;;30.77;15.30;;;;;;;;;;4958272;29;20401;-81
2023/05/26 07:45:47;;;;;;;37.57;17.67;;;;;;;;;;4958197;29;20500;-80
2023/05/26 07:48:14;;;;;;;38.30;16.53;;;;;;;;;;4955823;28;20818;-81
2023/05/26 07:50:40;;;;;;;30.67;15.50;;;;;;;;;;4956985;29;20468;-81
2023/05/26 07:53:06;;;;;;;36.00;15.10;;;;;;;;;;4958140;29;20932;-82
2023/05/26 07:55:32;;;;;;;25.27;14.17;;;;;;;;;;4958193;29;20780;-81
2023/05/26 07:57:58;;;;;;;31.63;14.70;;;;;;;;;;4956876;29;20439;-82
2023/05/26 08:00:25;;;;;;;33.53;15.00;;;;;;;;;;4958103;29;20455;-81
2023/05/26 08:02:51;;;;;;;32.57;14.70;;;;;;;;;;4957533;29;20411;-82
2023/05/26 08:05:17;;;;;;;33.80;16.20;;;;;;;;;;4957489;29;20416;-81
2023/05/26 08:07:43;;;;;;;26.07;12.70;;;;;;;;;;4957751;29;20404;-82
2023/05/26 08:10:09;;;;;;;30.43;15.13;;;;;;;;;;4957731;29;20778;-82
2023/05/26 08:12:35;;;;;;;31.70;14.40;;;;;;;;;;4957761;29;20413;-81
2023/05/26 08:15:03;;;;;;;32.50;15.47;;;;;;;;;;4956503;29;20420;-81
2023/05/26 08:17:29;;;;;;;25.23;13.80;;;;;;;;;;4938346;29;20433;-82
2023/05/26 08:19:55;;;;;;;33.40;15.80;;;;;;;;;;4937959;29;20409;-83
2023/05/26 08:22:21;;;;;;;28.97;14.87;;;;;;;;;;4938223;29;20410;-81
2023/05/26 08:24:47;;;;;;;29.07;14.40;;;;;;;;;;4938202;29;20755;-82
2023/05/26 08:27:13;;;;;;;31.87;14.90;;;;;;;;;;4937333;29;20413;-81
2023/05/26 08:29:39;;;;;;;35.90;16.37;;;;;;;;;;4937965;29;20485;-82
2023/05/26 08:32:05;;;;;;;30.50;15.00;;;;;;;;;;4937399;29;20417;-82
2023/05/26 08:34:31;;;;;;;33.57;14.80;;;;;;;;;;4937400;29;20768;-82
2023/05/26 08:36:57;;;;;;;32.80;15.23;;;;;;;;;;4937643;29;20786;-81
2023/05/26 08:39:24;;;;;;;36.07;16.60;;;;;;;;;;4937781;29;20410;-82
2023/05/26 08:42:10;;;;;;;32.83;15.30;;;;;;;;;;4937433;29;20413;-82
2023/05/26 08:44:37;;;;;;;33.50;16.00;;;;;;;;;;4935077;29;20425;-82
2023/05/26 08:47:03;;;;;;;27.37;13.50;;;;;;;;;;4937236;29;20384;-82
2023/05/26 08:49:39;;;;;;;33.10;15.87;;;;;;;;;;4937295;29;20803;-82
2023/05/26 08:52:13;;;;;;;32.03;14.03;;;;;;;;;;4942640;29;20432;-81
2023/05/26 08:54:39;;;;;;;30.13;15.03;;;;;;;;;;4956236;29;20972;-82
2023/05/26 08:57:05;;;;;;;29.77;14.07;;;;;;;;;;4956075;29;20379;-82
2023/05/26 08:59:33;;;;;;;23.97;13.43;;;;;;;;;;4956318;29;20459;-81
2023/05/26 09:01:59;;;;;;;36.50;14.90;;;;;;;;;;4955948;28;20726;-82
2023/05/26 09:04:30;;;;;;;28.87;15.03;;;;;;;;;;4955777;29;20394;-82
2023/05/26 09:06:56;;;;;;;33.90;15.10;;;;;;;;;;4955997;29;20405;-81
2023/05/26 09:09:22;;;;;;;26.43;15.10;;;;;;;;;;4955847;29;20523;-82
2023/05/26 09:11:48;;;;;;;33.23;15.40;;;;;;;;;;4938790;29;20431;-82
2023/05/26 09:14:16;;;;;;;26.90;15.30;;;;;;;;;;4956176;29;20419;-82
2023/05/26 09:16:42;;;;;;;27.00;13.43;;;;;;;;;;4956769;29;20819;-80
2023/05/26 09:19:12;;;;;;;25.07;14.23;;;;;;;;;;4956058;29;20412;-80
2023/05/26 09:21:38;;;;;;;22.33;13.10;;;;;;;;;;4956196;29;20423;-81
2023/05/26 09:24:04;;;;;;;26.13;14.20;;;;;;;;;;4955757;29;20447;-81
2023/05/26 09:26:32;;;;;;;25.33;14.63;;;;;;;;;;4956226;29;20405;-82
2023/05/26 09:28:59;;;;;;;25.43;13.00;;;;;;;;;;4955785;29;20590;-82
2023/05/26 09:31:25;;;;;;;23.47;14.40;;;;;;;;;;4955825;29;20492;-80
2023/05/26 09:33:51;;;;;;;25.03;15.33;;;;;;;;;;4955040;29;20413;-80
2023/05/26 09:36:17;;;;;;;25.07;14.60;;;;;;;;;;4955127;29;20408;-79
2023/05/26 09:38:44;;;;;;;31.10;13.73;;;;;;;;;;4955234;29;20418;-82
2023/05/26 09:41:10;;;;;;;27.40;13.80;;;;;;;;;;4955271;29;20884;-82
2023/05/26 09:43:37;;;;;;;24.03;13.77;;;;;;;;;;4938748;29;20428;-81
2023/05/26 09:46:08;;;;;;;22.60;12.37;;;;;;;;;;4955875;29;20923;-79
2023/05/26 09:48:36;;;;;;;21.17;11.50;;;;;;;;;;4955831;29;20460;-79
2023/05/26 09:51:03;;;;;;;21.70;11.10;;;;;;;;;;4955473;29;20475;-80
2023/05/26 09:53:29;;;;;;;20.80;10.63;;;;;;;;;;4955647;29;20416;-80
2023/05/26 09:55:57;;;;;;;23.63;10.80;;;;;;;;;;4955583;29;20415;-80
2023/05/26 09:58:25;;;;;;;25.10;10.57;;;;;;;;;;4955170;29;20893;-80
2023/05/26 10:00:52;;;;;;;20.70;10.60;;;;;;;;;;4955317;29;20943;-80
2023/05/26 10:03:18;;;;;;;25.00;10.70;;;;;;;;;;4955151;29;20438;-80
2023/05/26 10:05:47;;;;;;;23.13;9.40;;;;;;;;;;4955536;29;20451;-80
2023/05/26 10:08:15;;;;;;;20.00;9.90;;;;;;;;;;4954957;29;20543;-81
2023/05/26 10:10:43;;;;;;;26.03;10.90;;;;;;;;;;4955131;29;20421;-81
2023/05/26 10:13:10;;;;;;;18.30;9.10;;;;;;;;;;4956958;28;20432;-80
2023/05/26 10:15:36;;;;;;;19.13;8.97;;;;;;;;;;4960079;29;20421;-80
2023/05/26 10:18:02;;;;;;;18.23;9.33;;;;;;;;;;4958497;29;20395;-80
2023/05/26 10:20:29;;;;;;;18.30;9.10;;;;;;;;;;4958788;29;20404;-80
2023/05/26 10:23:14;;;;;;;21.60;8.90;;;;;;;;;;4958404;29;20504;-80
2023/05/26 10:26:00;;;;;;;20.50;8.50;;;;;;;;;;4958717;29;20409;-80
2023/05/26 10:28:30;;;;;;;24.17;8.20;;;;;;;;;;4958563;29;20976;-80
2023/05/26 10:31:00;;;;;;;17.30;8.43;;;;;;;;;;4958522;29;20421;-81
2023/05/26 10:33:37;;;;;;;16.73;7.43;;;;;;;;;;4958537;29;20423;-80
2023/05/26 10:36:06;;;;;;;19.97;8.87;;;;;;;;;;4958052;29;20405;-81
2023/05/26 10:38:36;;;;;;;21.73;8.50;;;;;;;;;;4958420;29;20415;-81
2023/05/26 10:41:02;;;;;;;20.07;8.03;;;;;;;;;;4957865;29;20749;-82
2023/05/26 10:43:29;;;;;;;25.67;8.17;;;;;;;;;;4958322;29;20448;-81
2023/05/26 10:46:02;;;;;;;19.17;8.70;;;;;;;;;;4958373;29;20487;-80
2023/05/26 10:48:37;;;;;;;21.57;9.33;;;;;;;;;;4957339;29;20510;-81
2023/05/26 10:51:05;;;;;;;15.60;8.20;;;;;;;;;;4957421;29;20472;-81
2023/05/26 10:53:32;;;;;;;19.70;8.97;;;;;;;;;;4958371;29;20813;-80
2023/05/26 10:55:59;;;;;;;18.63;8.57;;;;;;;;;;4957724;29;20424;-81
2023/05/26 10:58:35;;;;;;;21.03;8.00;;;;;;;;;;4957453;29;20412;-80
2023/05/26 11:01:02;;;;;;;20.13;8.27;;;;;;;;;;4957813;29;20416;-81
2023/05/26 11:03:45;;;;;;;18.10;8.60;;;;;;;;;;4957740;29;20425;-80
2023/05/26 11:06:12;;;;;;;20.47;8.10;;;;;;;;;;4957154;29;20419;-82
2023/05/26 11:08:56;;;;;;;18.90;7.67;;;;;;;;;;4957270;29;20827;-82
2023/05/26 11:11:29;;;;;;;17.93;7.60;;;;;;;;;;4957900;29;20412;-80
2023/05/26 11:14:05;;;;;;;20.90;7.87;;;;;;;;;;4957598;29;20420;-80
2023/05/26 11:16:35;;;;;;;18.43;8.20;;;;;;;;;;4957592;29;20823;-80
2023/05/26 11:19:02;;;;;;;19.53;7.57;;;;;;;;;;4957431;29;20904;-80
2023/05/26 11:21:29;;;;;;;26.37;8.90;;;;;;;;;;4957450;29;20405;-80
2023/05/26 11:23:56;;;;;;;12.53;7.37;;;;;;;;;;4939397;29;20413;-80
2023/05/26 11:26:23;;;;;;;18.93;7.43;;;;;;;;;;4954197;29;20417;-80
2023/05/26 11:28:49;;;;;;;19.97;7.57;;;;;;;;;;4957540;29;20478;-80
2023/05/26 11:31:16;;;;;;;17.80;6.87;;;;;;;;;;4957202;29;20421;-80
2023/05/26 11:33:44;;;;;;;19.93;7.40;;;;;;;;;;4957319;29;20420;-80
2023/05/26 11:36:12;;;;;;;19.20;7.50;;;;;;;;;;4957331;29;20935;-80
2023/05/26 11:38:38;;;;;;;18.40;7.30;;;;;;;;;;4957411;29;20800;-80
2023/05/26 11:41:08;;;;;;;18.90;7.13;;;;;;;;;;4956978;29;20499;-80
2023/05/26 11:43:34;;;;;;;18.57;7.53;;;;;;;;;;4957284;29;20408;-80
2023/05/26 11:46:05;;;;;;;21.80;8.60;;;;;;;;;;4956918;29;20409;-80
2023/05/26 11:48:36;;;;;;;17.97;8.20;;;;;;;;;;4957095;29;20480;-80
2023/05/26 11:51:06;;;;;;;17.03;6.40;;;;;;;;;;4956968;29;20524;-80
2023/05/26 11:53:32;;;;;;;16.03;6.77;;;;;;;;;;4957338;29;20375;-80
2023/05/26 11:56:05;;;;;;;20.37;7.47;;;;;;;;;;4957058;29;20888;-79
2023/05/26 11:58:36;;;;;;;19.43;7.63;;;;;;;;;;4956851;29;20428;-80
2023/05/26 12:01:02;;;;;;;13.43;7.03;;;;;;;;;;4955115;29;20429;-80
2023/05/26 12:03:28;;;;;;;18.60;7.57;;;;;;;;;;4938265;29;20406;-80
2023/05/26 12:06:13;;;;;;;25.80;8.70;;;;;;;;;;4937716;29;20417;-80
2023/05/26 12:08:49;;;;;;;19.73;7.77;;;;;;;;;;4937880;29;20461;-80
2023/05/26 12:11:30;;;;;;;19.70;7.60;;;;;;;;;;4937745;29;20409;-79
2023/05/26 12:13:57;;;;;;;15.00;7.17;;;;;;;;;;4938737;29;20727;-80
2023/05/26 12:16:40;;;;;;;14.93;7.17;;;;;;;;;;4938268;29;20476;-80
2023/05/26 12:19:07;;;;;;;15.37;6.67;;;;;;;;;;4938000;29;20417;-80
2023/05/26 12:21:40;;;;;;;12.60;6.40;;;;;;;;;;4937712;29;20910;-79
2023/05/26 12:24:06;;;;;;;13.80;6.90;;;;;;;;;;4937558;29;20480;-79
2023/05/26 12:26:32;;;;;;;14.50;7.57;;;;;;;;;;4937751;29;20422;-79
2023/05/26 12:29:08;;;;;;;19.27;7.63;;;;;;;;;;4937292;29;20776;-79
2023/05/26 12:31:47;;;;;;;19.23;8.63;;;;;;;;;;4937053;29;20424;-81
2023/05/26 12:34:15;;;;;;;19.03;8.47;;;;;;;;;;4935576;29;20403;-80
2023/05/26 12:36:41;;;;;;;22.30;7.07;;;;;;;;;;4936858;29;20892;-80
2023/05/26 12:39:07;;;;;;;24.03;7.40;;;;;;;;;;4936921;29;20432;-81
2023/05/26 12:41:33;;;;;;;17.47;7.93;;;;;;;;;;4937159;29;20418;-80
2023/05/26 12:44:00;;;;;;;21.37;8.87;;;;;;;;;;4937196;29;20924;-80
2023/05/26 12:46:27;;;;;;;18.33;7.10;;;;;;;;;;4936479;29;20632;-80
2023/05/26 12:48:53;;;;;;;16.70;7.13;;;;;;;;;;4936902;29;20465;-80
2023/05/26 12:51:19;;;;;;;27.77;8.87;;;;;;;;;;4936783;29;20456;-80
2023/05/26 12:53:45;;;;;;;19.13;8.87;;;;;;;;;;4936739;29;20418;-80
2023/05/26 12:56:11;;;;;;;19.40;8.23;;;;;;;;;;4936563;29;20418;-80
2023/05/26 12:58:41;;;;;;;18.83;8.43;;;;;;;;;;4936960;29;20417;-80
2023/05/26 13:01:08;;;;;;;17.67;7.80;;;;;;;;;;4939455;29;20441;-80
2023/05/26 13:03:34;;;;;;;15.83;6.77;;;;;;;;;;4956109;29;20845;-79
2023/05/26 13:06:01;;;;;;;14.60;7.10;;;;;;;;;;4955820;29;20407;-80
2023/05/26 13:08:27;;;;;;;17.73;7.03;;;;;;;;;;4955482;29;20475;-80
2023/05/26 13:10:54;;;;;;;18.23;8.47;;;;;;;;;;4955690;29;20593;-80
2023/05/26 13:13:20;;;;;;;15.63;6.50;;;;;;;;;;4955407;29;20413;-80
2023/05/26 13:15:46;;;;;;;15.10;6.60;;;;;;;;;;4955426;29;20444;-80
2023/05/26 13:18:12;;;;;;;20.63;7.00;;;;;;;;;;4951000;29;20414;-80
2023/05/26 13:20:38;;;;;;;20.57;7.00;;;;;;;;;;4936338;29;20797;-80
2023/05/26 13:23:04;;;;;;;14.00;5.53;;;;;;;;;;4884212;29;21143;-80
2023/05/26 13:25:30;;;;;;;18.63;6.70;;;;;;;;;;4798205;28;20558;-79
2023/05/26 13:27:57;;;;;;;18.53;6.70;;;;;;;;;;4762190;28;20476;-80
2023/05/26 13:30:23;;;;;;;15.57;6.40;;;;;;;;;;4775990;28;20892;-80
2023/05/26 13:32:49;;;;;;;16.70;5.90;;;;;;;;;;4793079;28;20477;-81
2023/05/26 13:35:16;;;;;;;17.40;7.00;;;;;;;;;;4783425;28;20484;-78
2023/05/26 13:37:42;;;;;;;17.17;6.33;;;;;;;;;;4799605;28;20478;-79
2023/05/26 13:40:09;;;;;;;18.13;7.23;;;;;;;;;;4772700;28;20518;-79
2023/05/26 13:42:35;;;;;;;21.33;6.77;;;;;;;;;;4800521;28;20468;-78
2023/05/26 13:45:03;;;;;;;19.50;6.27;;;;;;;;;;4778766;28;20534;-78
2023/05/26 13:47:29;;;;;;;14.30;5.73;;;;;;;;;;4798704;28;20587;-78
2023/05/26 13:49:56;;;;;;;17.67;6.93;;;;;;;;;;4790295;29;20616;-78
2023/05/26 13:52:22;;;;;;;13.00;4.77;;;;;;;;;;4767704;28;20480;-77
2023/05/26 13:54:48;;;;;;;15.90;5.70;;;;;;;;;;4787004;28;20516;-78
2023/05/26 13:57:14;;;;;;;15.57;6.10;;;;;;;;;;4785645;29;20481;-78
2023/05/26 13:59:40;;;;;;;13.20;5.90;;;;;;;;;;4803079;28;20480;-80
2023/05/26 14:02:06;;;;;;;12.87;5.20;;;;;;;;;;4802550;28;20473;-78
2023/05/26 14:04:33;;;;;;;14.60;5.20;;;;;;;;;;4778096;28;20516;-79
2023/05/26 14:06:59;;;;;;;14.00;5.43;;;;;;;;;;4796423;28;20495;-78
2023/05/26 14:09:26;;;;;;;19.23;5.90;;;;;;;;;;4790701;28;20489;-79
2023/05/26 14:11:52;;;;;;;13.47;5.83;;;;;;;;;;4802815;28;20472;-79
2023/05/26 14:14:18;;;;;;;12.77;5.23;;;;;;;;;;4791936;28;20449;-80
2023/05/26 14:16:44;;;;;;;18.63;5.80;;;;;;;;;;4785731;28;20477;-78
2023/05/26 14:19:10;;;;;;;16.63;6.13;;;;;;;;;;4773881;28;20569;-78
2023/05/26 14:21:36;;;;;;;12.57;5.40;;;;;;;;;;4799959;28;20973;-78
2023/05/26 14:24:03;;;;;;;15.17;6.10;;;;;;;;;;4772941;28;20493;-78
2023/05/26 14:26:29;;;;;;;16.00;5.47;;;;;;;;;;4786490;28;20476;-78